< < Back
Terminal Aerodrome Forecast


Current Version              Previous Versions:   1  2  3  4  5  6  7  8  9  

Terminal Aerodrome Forecast

718
FTUS44 KBMX 311700 RRA
TAFBHM
TAF
KBHM 311743Z 3118/0118 02006KT P6SM SCT050 BKN100
     FM011500 05003KT P6SM BKN150=



Latest METAR

702
SAUS70 KWBC 010700 RRL
MTRBHM
METAR KBHM 010653Z 00000KT 10SM BKN150 22/19 A3005 RMK AO2 SLP169
T02170189


USA.gov is the U.S. government's official web portal to all federal, state and local government web resources and services.